Time;durP1;ratioP1;P1;durP2;ratioP2;P2;SDS_P1;SDS_P2;PMS_P1;PMS_P2;Temp;Humidity;BMP_temperature;BMP_pressure;BME280_temperature;BME280_humidity;BME280_pressure;Samples;Min_cycle;Max_cycle;Signal;HPM_P1;HPM_P2
2022/01/25 00:10:01;;;;;;;12.67;10.77;;;;;;;-3.68;64.06;101129.59;5094510;28;20486;-80
2022/01/25 00:15:18;;;;;;;11.20;10.07;;;;;;;-3.53;63.87;101135.88;5094366;28;20413;-78
2022/01/25 00:26:15;;;;;;;11.63;10.47;;;;;;;-3.81;63.24;101137.97;5094129;28;20459;-77
2022/01/25 00:28:47;;;;;;;11.77;10.03;;;;;;;-4.01;62.96;101132.81;5094996;28;20811;-77
2022/01/25 00:31:15;;;;;;;10.90;10.00;;;;;;;-4.27;63.64;101133.91;5094515;28;20436;-76
2022/01/25 00:33:43;;;;;;;11.53;9.60;;;;;;;-4.42;64.27;101131.09;5093701;28;21026;-76
2022/01/25 00:36:13;;;;;;;12.70;9.83;;;;;;;-4.48;64.57;101128.75;5093655;28;20429;-76
2022/01/25 00:38:42;;;;;;;14.53;9.83;;;;;;;-4.71;64.67;101126.25;5094441;28;20437;-76
2022/01/25 00:41:08;;;;;;;15.53;9.93;;;;;;;-4.98;65.52;101122.13;5094588;28;20510;-77
2022/01/25 00:43:35;;;;;;;12.90;9.67;;;;;;;-5.10;66.01;101135.53;5093499;28;20433;-75
2022/01/25 00:46:06;;;;;;;15.77;10.53;;;;;;;-5.07;66.13;101132.84;5093470;28;20522;-75
2022/01/25 00:48:43;;;;;;;13.07;10.60;;;;;;;-5.14;66.02;101132.22;5093827;28;20433;-76
2022/01/25 00:53:57;;;;;;;15.97;10.27;;;;;;;-5.30;67.04;101118.16;5049189;28;21044;-77
2022/01/25 00:56:25;;;;;;;13.50;10.43;;;;;;;-5.23;67.15;101121.38;5093560;28;20516;-76
2022/01/25 00:58:52;;;;;;;16.63;10.30;;;;;;;-5.25;67.09;101133.50;5092924;28;20430;-76
2022/01/25 01:01:20;;;;;;;13.87;10.37;;;;;;;-5.37;67.05;101124.47;5093636;28;20429;-76
2022/01/25 01:03:47;;;;;;;10.63;9.50;;;;;;;-5.50;67.56;101117.19;5092403;28;20509;-76
2022/01/25 01:06:15;;;;;;;11.87;10.73;;;;;;;-5.47;67.27;101122.28;5091977;28;20476;-76
2022/01/25 01:08:42;;;;;;;11.13;9.13;;;;;;;-5.45;67.12;101123.03;5092463;28;20445;-75
2022/01/25 01:11:15;;;;;;;14.83;10.47;;;;;;;-5.53;67.35;101127.66;5091864;28;20498;-75
2022/01/25 01:16:50;;;;;;;11.80;10.53;;;;;;;-5.38;67.12;101117.59;5091309;28;20441;-76
2022/01/25 01:30:30;;;;;;;9.33;8.43;;;;;;;-5.28;65.10;101115.53;5092951;28;20471;-76
2022/01/25 01:38:53;;;;;;;10.80;8.70;;;;;;;-5.03;64.15;101104.16;5080655;28;20421;-75
2022/01/25 01:41:43;;;;;;;10.50;8.80;;;;;;;-5.05;63.67;101099.94;5092198;28;20956;-75
2022/01/25 01:44:19;;;;;;;10.00;7.93;;;;;;;-5.15;63.50;101102.03;5092697;28;21054;-78
2022/01/25 01:47:00;;;;;;;9.53;8.60;;;;;;;-5.19;63.54;101097.03;5092782;28;20417;-75
2022/01/25 01:49:28;;;;;;;8.50;7.67;;;;;;;-5.11;63.34;101089.84;5092451;28;20437;-75
2022/01/25 01:51:55;;;;;;;8.87;8.03;;;;;;;-5.04;63.18;101086.94;5092397;28;20528;-78
2022/01/25 01:54:22;;;;;;;10.30;9.23;;;;;;;-4.97;62.17;101093.56;5092631;28;20872;-75
2022/01/25 01:56:50;;;;;;;8.80;7.90;;;;;;;-4.83;61.94;101090.44;5092948;28;20433;-76
2022/01/25 01:59:19;;;;;;;10.33;7.67;;;;;;;-4.74;62.35;101092.66;5092228;28;21031;-76
2022/01/25 02:01:47;;;;;;;9.17;8.27;;;;;;;-4.76;61.74;101087.53;5092565;28;20437;-76
2022/01/25 02:04:18;;;;;;;9.60;8.60;;;;;;;-4.74;61.72;101090.91;5092263;28;20441;-76
2022/01/25 02:06:44;;;;;;;8.27;7.47;;;;;;;-4.89;62.01;101091.53;5092496;28;20460;-75
2022/01/25 02:09:12;;;;;;;10.57;8.47;;;;;;;-5.02;62.57;101089.47;5092305;28;20467;-75
2022/01/25 02:11:40;;;;;;;8.73;7.87;;;;;;;-4.92;62.59;101080.41;5092292;28;20437;-75
2022/01/25 02:14:09;;;;;;;10.40;8.47;;;;;;;-4.85;62.11;101084.47;5092076;28;20514;-75
2022/01/25 02:16:55;;;;;;;10.13;9.03;;;;;;;-4.84;62.08;101083.56;5091974;28;20456;-75
2022/01/25 02:22:30;;;;;;;11.33;9.90;;;;;;;-5.13;63.06;101081.25;5091815;28;20784;-74
2022/01/25 02:24:59;;;;;;;11.63;9.30;;;;;;;-5.20;63.45;101077.25;5091853;28;20453;-75
2022/01/25 02:27:25;;;;;;;10.43;8.33;;;;;;;-5.24;63.85;101070.50;5091827;28;20441;-76
2022/01/25 02:29:52;;;;;;;8.67;7.57;;;;;;;-5.43;64.17;101072.09;5091964;28;20441;-76
2022/01/25 02:32:19;;;;;;;9.13;8.20;;;;;;;-5.43;64.47;101060.00;5091545;28;20433;-76
2022/01/25 02:34:46;;;;;;;9.80;8.80;;;;;;;-5.49;64.70;101056.75;5092090;28;20477;-76
2022/01/25 02:37:16;;;;;;;10.83;9.03;;;;;;;-5.21;64.38;101060.00;5091816;28;20459;-76
2022/01/25 02:39:44;;;;;;;12.17;7.90;;;;;;;-5.10;63.40;101053.50;5092477;28;20496;-76
2022/01/25 02:42:13;;;;;;;9.17;8.33;;;;;;;-5.00;63.36;101056.56;5092059;28;20438;-75
2022/01/25 02:44:41;;;;;;;10.60;9.10;;;;;;;-4.80;62.95;101054.88;5092158;28;20448;-74
2022/01/25 02:49:52;;;;;;;8.97;8.00;;;;;;;-4.74;61.88;101058.97;5092414;28;20408;-74
2022/01/25 02:52:21;;;;;;;9.73;8.83;;;;;;;-4.93;62.15;101048.50;5091843;28;20445;-74
2022/01/25 02:54:47;;;;;;;8.33;7.70;;;;;;;-4.77;62.00;101051.31;5091641;28;20437;-74
2022/01/25 02:57:15;;;;;;;9.03;8.10;;;;;;;-4.67;61.38;101060.38;5091840;28;20446;-74
2022/01/25 02:59:42;;;;;;;8.73;7.93;;;;;;;-4.67;60.68;101060.38;5091891;28;20433;-74
2022/01/25 03:02:09;;;;;;;8.50;7.80;;;;;;;-4.81;61.02;101054.94;5092074;28;20870;-76
2022/01/25 03:04:36;;;;;;;8.63;7.93;;;;;;;-4.87;61.09;101047.44;5091917;28;20445;-76
2022/01/25 03:07:03;;;;;;;7.70;7.17;;;;;;;-4.95;61.29;101054.66;5091347;28;20529;-76
2022/01/25 03:09:31;;;;;;;8.47;7.63;;;;;;;-4.98;62.01;101047.00;5091938;28;20861;-76
2022/01/25 03:12:00;;;;;;;10.97;8.77;;;;;;;-5.09;61.74;101036.22;5091679;28;20438;-76
2022/01/25 03:14:31;;;;;;;7.80;7.20;;;;;;;-5.00;61.24;101046.19;5091309;28;20433;-75
2022/01/25 03:17:11;;;;;;;8.57;7.77;;;;;;;-5.01;60.96;101035.00;5091732;28;20437;-76
2022/01/25 03:19:47;;;;;;;7.93;7.30;;;;;;;-5.21;61.52;101031.50;5091194;28;21009;-76
2022/01/25 03:22:18;;;;;;;7.67;7.17;;;;;;;-5.09;61.19;101026.69;5091604;28;20444;-76
2022/01/25 03:24:49;;;;;;;9.10;7.87;;;;;;;-5.29;62.04;101024.06;5092019;28;20437;-78
2022/01/25 03:27:15;;;;;;;7.57;7.03;;;;;;;-5.26;61.90;101017.91;5091918;28;20452;-77
2022/01/25 03:29:42;;;;;;;8.80;8.00;;;;;;;-5.27;62.05;101011.88;5091991;28;20508;-79
2022/01/25 03:32:09;;;;;;;8.03;7.37;;;;;;;-5.30;62.32;101000.81;5092245;28;20498;-78
2022/01/25 03:34:36;;;;;;;10.20;7.57;;;;;;;-5.54;62.84;100986.22;5095483;28;20522;-78
2022/01/25 03:37:03;;;;;;;12.20;8.53;;;;;;;-5.52;63.48;100989.59;5095748;28;20453;-78
2022/01/25 03:39:29;;;;;;;8.33;7.57;;;;;;;-5.54;63.50;100988.81;5094791;28;20440;-76
2022/01/25 03:41:57;;;;;;;9.13;8.30;;;;;;;-5.56;63.85;100978.50;5095182;28;20878;-77
2022/01/25 03:44:24;;;;;;;9.70;8.90;;;;;;;-5.54;63.94;100968.09;5095077;28;20486;-78
2022/01/25 03:47:03;;;;;;;8.27;7.57;;;;;;;-5.52;63.97;100968.91;5095057;28;20469;-76
2022/01/25 03:49:49;;;;;;;7.57;6.97;;;;;;;-5.62;64.22;100958.06;5096290;28;20433;-77
2022/01/25 03:52:19;;;;;;;9.63;7.13;;;;;;;-5.58;64.42;100954.44;5094588;28;20953;-78
2022/01/25 03:54:48;;;;;;;9.13;8.10;;;;;;;-5.60;64.13;100960.59;5095077;28;20507;-77
2022/01/25 03:57:16;;;;;;;11.73;7.70;;;;;;;-5.43;63.69;100953.00;5094957;28;20484;-78
2022/01/25 03:59:43;;;;;;;7.93;7.23;;;;;;;-5.49;63.15;100945.47;5094587;28;20855;-77
2022/01/25 04:02:09;;;;;;;8.70;7.80;;;;;;;-5.30;62.98;100941.25;5094685;28;20490;-77
2022/01/25 04:04:36;;;;;;;6.57;5.97;;;;;;;-5.27;61.65;100948.91;5094420;28;20486;-77
2022/01/25 04:07:08;;;;;;;7.07;6.47;;;;;;;-5.24;61.13;100943.63;5095118;28;20473;-77
2022/01/25 04:09:36;;;;;;;9.07;8.13;;;;;;;-5.14;60.71;100947.50;5095464;28;20444;-77
2022/01/25 04:12:03;;;;;;;8.23;7.43;;;;;;;-5.15;60.18;100949.25;5094763;28;20437;-77
2022/01/25 04:14:31;;;;;;;8.67;7.97;;;;;;;-5.00;60.57;100945.19;5094063;28;20806;-75
2022/01/25 04:17:01;;;;;;;7.73;7.03;;;;;;;-4.91;59.76;100945.66;5094588;28;20848;-77
2022/01/25 04:19:34;;;;;;;8.47;7.83;;;;;;;-4.80;59.66;100943.44;5094303;28;20437;-78
2022/01/25 04:25:01;;;;;;;8.97;7.47;;;;;;;-4.68;59.31;100939.50;5082285;28;20440;-78
2022/01/25 04:27:29;;;;;;;7.90;7.10;;;;;;;-4.70;58.45;100936.97;5094106;28;20851;-77
2022/01/25 04:29:57;;;;;;;8.37;6.27;;;;;;;-4.55;57.98;100935.47;5094204;28;20509;-76
2022/01/25 04:32:32;;;;;;;6.50;6.00;;;;;;;-4.62;57.53;100934.06;5093708;28;20924;-76
2022/01/25 04:35:11;;;;;;;7.83;6.97;;;;;;;-4.57;57.37;100937.28;5093535;28;20507;-76
2022/01/25 04:51:41;;;;;;;7.20;6.70;;;;;;;-4.28;56.38;100944.63;5093947;28;20405;-77
2022/01/25 04:54:15;;;;;;;8.03;7.23;;;;;;;-4.17;55.32;100937.22;5093506;28;20429;-78
2022/01/25 04:56:48;;;;;;;12.80;7.73;;;;;;;-4.07;55.64;100935.91;5093507;28;20498;-76
2022/01/25 04:59:23;;;;;;;8.23;7.43;;;;;;;-4.02;55.63;100937.38;5093733;28;20444;-76
2022/01/25 05:01:54;;;;;;;21.03;9.60;;;;;;;-3.97;55.57;100932.00;5093427;28;20949;-76
2022/01/25 05:04:26;;;;;;;16.60;8.13;;;;;;;-3.96;56.02;100936.25;5093232;28;20425;-76
2022/01/25 05:06:56;;;;;;;8.23;7.03;;;;;;;-4.09;56.19;100930.78;5093257;28;20837;-76
2022/01/25 05:09:23;;;;;;;11.90;8.03;;;;;;;-4.12;56.12;100930.09;5092875;28;20465;-76
2022/01/25 05:11:50;;;;;;;8.43;7.73;;;;;;;-4.19;56.21;100931.25;5093431;28;20433;-76
2022/01/25 05:14:24;;;;;;;12.03;10.27;;;;;;;-4.19;56.27;100926.06;5092668;28;20441;-76
2022/01/25 05:16:58;;;;;;;9.63;8.63;;;;;;;-4.29;55.89;100933.41;5092960;28;20437;-74
2022/01/25 05:22:25;;;;;;;12.47;7.13;;;;;;;-4.19;55.49;100933.84;5079076;28;20523;-74
2022/01/25 05:24:53;;;;;;;15.33;8.83;;;;;;;-4.16;55.50;100928.53;5092456;28;20433;-73
2022/01/25 05:27:23;;;;;;;11.80;8.77;;;;;;;-4.22;55.07;100939.16;5091938;28;20465;-76
2022/01/25 05:29:50;;;;;;;9.40;8.53;;;;;;;-4.31;55.16;100937.00;5092348;28;20453;-74
2022/01/25 05:32:19;;;;;;;8.47;7.83;;;;;;;-4.31;55.30;100945.63;5092487;28;20433;-75
2022/01/25 05:34:45;;;;;;;13.47;9.30;;;;;;;-4.23;55.16;100930.56;5092243;28;20473;-75
2022/01/25 05:37:13;;;;;;;8.50;7.70;;;;;;;-4.22;54.39;100936.56;5091932;28;20437;-70
2022/01/25 05:39:40;;;;;;;16.73;11.40;;;;;;;-4.29;54.37;100948.16;5091789;28;20490;-69
2022/01/25 05:42:42;;;;;;;10.43;9.20;;;;;;;-4.29;54.95;100954.16;5091541;28;20449;-71
2022/01/25 05:45:26;;;;;;;9.30;8.20;;;;;;;-4.20;54.09;100958.13;5091127;28;20534;-70
2022/01/25 05:47:54;;;;;;;12.57;9.63;;;;;;;-4.11;53.35;100960.28;5091154;28;20821;-70
2022/01/25 05:50:21;;;;;;;8.10;7.50;;;;;;;-4.18;53.51;100951.09;5092056;28;20441;-76
2022/01/25 05:52:47;;;;;;;7.27;6.73;;;;;;;-4.07;52.87;100965.28;5092074;28;20441;-74
2022/01/25 05:55:14;;;;;;;9.20;7.80;;;;;;;-4.12;52.79;100966.41;5091344;28;20973;-76
2022/01/25 05:57:41;;;;;;;11.47;7.90;;;;;;;-4.00;52.68;100965.84;5091694;28;20510;-73
2022/01/25 06:00:09;;;;;;;8.87;6.57;;;;;;;-4.01;52.13;100964.19;5091293;28;20437;-74
2022/01/25 06:02:36;;;;;;;7.50;6.80;;;;;;;-3.91;52.13;100973.22;5091388;28;20449;-73
2022/01/25 06:05:06;;;;;;;9.20;8.53;;;;;;;-3.76;51.15;100975.13;5090981;28;20452;-72
2022/01/25 06:07:33;;;;;;;12.03;10.80;;;;;;;-3.67;50.75;100967.75;5091360;28;20844;-72
2022/01/25 06:09:59;;;;;;;16.17;12.80;;;;;;;-3.59;50.42;100968.22;5091121;28;20441;-73
2022/01/25 06:12:26;;;;;;;10.30;8.77;;;;;;;-3.71;50.29;100960.16;5091615;28;20494;-73
2022/01/25 06:14:53;;;;;;;8.27;7.57;;;;;;;-3.68;50.08;100952.25;5091586;28;20441;-72
2022/01/25 06:17:19;;;;;;;11.80;7.70;;;;;;;-3.50;50.02;100964.38;5090679;28;20890;-71
2022/01/25 06:19:46;;;;;;;13.07;7.07;;;;;;;-3.33;48.72;100969.59;5091024;28;20448;-72
2022/01/25 06:22:15;;;;;;;8.07;6.77;;;;;;;-3.35;56.85;100941.09;5088042;28;20444;-74
2022/01/25 06:24:42;;;;;;;11.07;9.93;;;;;;;-3.22;48.65;100956.94;5089638;28;20451;-70
2022/01/25 06:27:09;;;;;;;12.37;9.10;;;;;;;-3.09;48.22;100960.63;5089894;28;20549;-72
2022/01/25 06:29:36;;;;;;;22.33;8.17;;;;;;;-2.81;48.08;100937.56;5089975;28;20834;-70
2022/01/25 06:32:03;;;;;;;7.53;6.83;;;;;;;-2.44;46.44;100959.03;5087548;28;20468;-72
2022/01/25 06:34:29;;;;;;;7.87;7.13;;;;;;;-2.08;45.34;100961.47;5089246;28;20530;-71
2022/01/25 06:36:56;;;;;;;8.03;6.50;;;;;;;-1.66;45.00;100959.16;5089574;28;20495;-70
2022/01/25 06:39:24;;;;;;;9.80;7.73;;;;;;;-1.38;43.60;100967.16;5089641;28;20441;-71
2022/01/25 06:41:51;;;;;;;8.17;7.33;;;;;;;-1.26;43.62;100969.09;5089626;28;20433;-71
2022/01/25 06:44:18;;;;;;;10.30;7.83;;;;;;;-1.03;43.53;100976.44;5090035;28;20441;-71
2022/01/25 06:46:46;;;;;;;9.87;6.90;;;;;;;-0.62;42.70;100969.69;5089574;28;21043;-71
2022/01/25 06:49:13;;;;;;;9.97;8.10;;;;;;;-0.32;41.47;100978.31;5089693;28;20532;-72
2022/01/25 06:51:40;;;;;;;11.47;9.27;;;;;;;-0.30;41.47;100952.97;5089826;28;20437;-74
2022/01/25 06:54:07;;;;;;;20.47;11.67;;;;;;;-0.30;40.86;100943.38;5089906;28;20502;-72
2022/01/25 06:56:35;;;;;;;10.77;8.20;;;;;;;-0.04;40.31;100947.03;5089461;28;20498;-71
2022/01/25 06:59:01;;;;;;;9.73;8.43;;;;;;;-0.22;40.15;100948.13;5089757;28;20428;-70
2022/01/25 07:01:28;;;;;;;15.10;9.40;;;;;;;-0.23;40.72;100938.63;5089912;28;20441;-71
2022/01/25 07:03:55;;;;;;;12.87;9.07;;;;;;;0.06;40.11;100942.91;5089470;28;20502;-70
2022/01/25 07:06:22;;;;;;;17.17;14.27;;;;;;;-0.12;40.75;100941.41;5090211;28;20550;-70
2022/01/25 07:08:48;;;;;;;11.53;9.33;;;;;;;-0.04;40.08;100941.78;5092865;28;20433;-71
2022/01/25 07:11:15;;;;;;;8.73;7.90;;;;;;;-0.01;40.50;100936.38;5093661;28;20494;-69
2022/01/25 07:13:43;;;;;;;24.07;7.93;;;;;;;0.52;40.17;100946.91;5093308;28;20433;-69
2022/01/25 07:16:10;;;;;;;16.60;8.40;;;;;;;0.79;39.07;100949.53;5093715;28;21005;-72
2022/01/25 07:18:37;;;;;;;12.17;8.70;;;;;;;1.08;39.14;100949.34;5093793;28;20501;-72
2022/01/25 07:21:03;;;;;;;16.30;8.23;;;;;;;0.97;38.66;100928.28;5093556;28;20429;-73
2022/01/25 07:23:30;;;;;;;14.70;9.67;;;;;;;1.34;38.16;100914.41;5093459;28;20441;-69
2022/01/25 07:25:57;;;;;;;13.40;7.37;;;;;;;1.34;37.26;100919.66;5093548;28;20476;-70
2022/01/25 07:28:24;;;;;;;10.30;7.93;;;;;;;1.16;38.50;100910.44;5093621;28;21060;-69
2022/01/25 07:30:52;;;;;;;11.07;8.33;;;;;;;1.01;38.16;100927.13;5092845;28;20502;-72
2022/01/25 07:33:19;;;;;;;24.83;12.97;;;;;;;0.95;37.90;100926.69;5093384;28;20497;-71
2022/01/25 07:35:46;;;;;;;18.10;10.00;;;;;;;0.96;38.45;100926.59;5093637;28;20444;-71
2022/01/25 07:38:15;;;;;;;13.00;8.93;;;;;;;1.25;38.13;100930.75;5093090;28;20439;-72
2022/01/25 07:40:42;;;;;;;10.20;7.30;;;;;;;1.47;37.04;100925.72;5093628;28;20437;-71
2022/01/25 07:43:10;;;;;;;11.80;7.93;;;;;;;1.42;38.35;100927.81;5093100;28;20451;-72
2022/01/25 07:45:37;;;;;;;13.13;9.43;;;;;;;1.12;37.73;100934.25;5093080;28;20437;-71
2022/01/25 07:48:07;;;;;;;21.83;10.57;;;;;;;0.83;37.80;100927.50;5093009;28;20557;-71
2022/01/25 07:50:34;;;;;;;21.10;13.00;;;;;;;1.11;37.57;100927.38;5092625;28;20437;-71
2022/01/25 07:53:01;;;;;;;23.70;13.43;;;;;;;1.13;37.21;100925.47;5092603;28;20530;-71
2022/01/25 07:55:28;;;;;;;21.40;12.50;;;;;;;1.45;37.50;100922.41;5092963;28;20443;-70
2022/01/25 07:57:55;;;;;;;14.77;9.73;;;;;;;1.14;37.61;100927.16;5092479;28;21318;-71
2022/01/25 08:00:22;;;;;;;15.43;8.80;;;;;;;1.03;37.92;100925.25;5092520;28;20437;-71
2022/01/25 08:02:51;;;;;;;11.67;8.87;;;;;;;1.14;38.00;100922.75;5092645;28;20498;-70
2022/01/25 08:05:21;;;;;;;58.57;11.17;;;;;;;1.35;38.27;100905.63;5093022;28;20446;-70
2022/01/25 08:07:48;;;;;;;9.83;7.30;;;;;;;1.87;36.95;100929.94;5092504;28;20479;-71
2022/01/25 08:10:15;;;;;;;11.93;9.07;;;;;;;2.23;36.26;100927.38;5092422;28;20500;-71
2022/01/25 08:12:42;;;;;;;8.77;8.07;;;;;;;1.65;36.12;100908.78;5092058;28;20940;-70
2022/01/25 08:15:10;;;;;;;7.87;7.10;;;;;;;1.68;36.57;100916.44;5092647;28;20496;-70
2022/01/25 08:17:37;;;;;;;9.20;8.20;;;;;;;1.57;36.51;100899.78;5092752;28;20513;-72
2022/01/25 08:20:05;;;;;;;9.83;8.17;;;;;;;1.68;36.92;100912.97;5092044;28;20866;-70
2022/01/25 08:22:34;;;;;;;10.47;8.47;;;;;;;1.72;37.10;100910.03;5092621;28;20433;-69
2022/01/25 08:25:00;;;;;;;14.30;8.77;;;;;;;1.64;36.34;100903.66;5092843;28;20437;-69
2022/01/25 08:27:27;;;;;;;10.87;7.70;;;;;;;1.16;37.32;100899.97;5092477;28;21071;-69
2022/01/25 08:29:55;;;;;;;12.40;8.87;;;;;;;1.34;37.45;100898.72;5092223;28;20437;-70
2022/01/25 08:32:22;;;;;;;17.50;8.77;;;;;;;1.75;36.56;100899.34;5092825;28;20491;-71
2022/01/25 08:34:49;;;;;;;8.47;7.73;;;;;;;1.17;37.75;100896.41;5092124;28;20480;-70
2022/01/25 08:37:16;;;;;;;9.60;8.27;;;;;;;1.70;37.54;100901.44;5092249;28;20443;-71
2022/01/25 08:39:44;;;;;;;8.60;7.90;;;;;;;2.34;36.36;100897.75;5091845;28;20506;-70
2022/01/25 08:42:11;;;;;;;9.03;8.13;;;;;;;2.23;35.70;100895.91;5092429;28;20433;-70
2022/01/25 08:44:38;;;;;;;11.53;9.40;;;;;;;2.41;36.29;100889.34;5092303;28;20494;-71
2022/01/25 08:47:06;;;;;;;13.77;11.40;;;;;;;2.19;36.22;100883.13;5091903;28;20472;-71
2022/01/25 08:49:32;;;;;;;11.50;10.23;;;;;;;2.47;35.23;100883.66;5092303;28;20433;-70
2022/01/25 08:51:59;;;;;;;22.27;16.70;;;;;;;2.62;36.08;100885.16;5092461;28;20494;-72
2022/01/25 08:54:26;;;;;;;15.07;12.37;;;;;;;3.04;35.30;100882.00;5092196;28;20433;-71
2022/01/25 08:56:54;;;;;;;12.47;10.63;;;;;;;3.25;34.49;100872.53;5092518;28;20437;-71
2022/01/25 08:59:22;;;;;;;17.03;10.47;;;;;;;3.30;37.88;100857.25;5092395;28;20433;-68
2022/01/25 09:01:49;;;;;;;26.90;10.67;;;;;;;3.14;37.61;100851.47;5092327;28;20449;-69
2022/01/25 09:04:16;;;;;;;17.20;10.27;;;;;;;3.47;36.10;100856.78;5079321;28;21142;-69
2022/01/25 09:06:43;;;;;;;11.77;10.33;;;;;;;3.40;34.80;100847.72;5092066;28;20441;-73
2022/01/25 09:09:11;;;;;;;9.70;8.80;;;;;;;2.94;34.76;100835.59;5091701;28;20433;-70
2022/01/25 09:11:40;;;;;;;12.13;8.30;;;;;;;2.05;36.58;100834.34;5091244;28;20507;-71
2022/01/25 09:14:09;;;;;;;22.67;10.00;;;;;;;2.05;36.55;100834.34;5089790;28;20449;-71
2022/01/25 09:16:37;;;;;;;15.33;10.33;;;;;;;2.54;36.78;100816.72;5090466;28;20429;-72
2022/01/25 09:19:04;;;;;;;15.87;9.20;;;;;;;2.33;35.79;100823.50;5085934;28;20511;-73
2022/01/25 09:21:31;;;;;;;9.50;8.57;;;;;;;2.25;36.22;100815.38;5083125;28;20449;-71
2022/01/25 09:23:58;;;;;;;15.43;11.10;;;;;;;2.00;35.97;100823.31;5091669;28;20449;-72
2022/01/25 09:26:25;;;;;;;18.90;10.27;;;;;;;2.02;36.11;100813.59;5091800;28;20495;-72
2022/01/25 09:28:54;;;;;;;13.07;10.23;;;;;;;1.86;36.29;100809.53;5089717;28;20476;-72
2022/01/25 09:31:23;;;;;;;20.43;11.27;;;;;;;2.13;36.00;100800.56;5082428;28;20449;-72
2022/01/25 09:33:49;;;;;;;24.77;12.87;;;;;;;2.30;36.14;100797.53;5078291;28;20477;-72
2022/01/25 09:36:16;;;;;;;22.90;10.40;;;;;;;2.69;35.31;100793.78;5076792;28;21030;-73
2022/01/25 09:38:43;;;;;;;15.13;9.23;;;;;;;2.43;34.96;100779.13;5079380;28;20478;-71
2022/01/25 09:41:10;;;;;;;17.40;11.10;;;;;;;2.33;35.43;100786.81;5080448;28;20433;-71
2022/01/25 09:43:36;;;;;;;26.53;14.37;;;;;;;2.61;35.34;100781.22;5082914;28;20437;-71
2022/01/25 09:46:03;;;;;;;15.87;11.37;;;;;;;2.59;35.16;100779.66;5084640;28;20441;-73
2022/01/25 09:48:31;;;;;;;15.67;10.70;;;;;;;2.87;34.13;100761.75;5084458;28;20472;-71
2022/01/25 09:50:59;;;;;;;17.57;8.97;;;;;;;2.51;34.75;100772.38;5085865;28;20498;-73
2022/01/25 09:53:26;;;;;;;13.70;9.73;;;;;;;2.20;35.95;100754.59;5085894;28;20444;-71
2022/01/25 09:55:53;;;;;;;13.43;8.57;;;;;;;2.56;34.44;100764.13;5084490;28;20949;-72
2022/01/25 09:58:20;;;;;;;19.93;9.77;;;;;;;2.57;35.08;100753.53;5088499;28;20441;-73
2022/01/25 10:00:48;;;;;;;11.27;9.17;;;;;;;2.50;34.40;100749.72;5089936;28;20852;-69
2022/01/25 10:03:22;;;;;;;12.77;9.13;;;;;;;2.02;35.26;100744.63;5089926;28;20979;-72
2022/01/25 10:05:51;;;;;;;12.93;9.40;;;;;;;2.01;34.93;100749.03;5090202;28;21085;-73
2022/01/25 10:08:20;;;;;;;30.00;11.00;;;;;;;1.90;35.19;100748.97;5090446;28;20480;-72
2022/01/25 10:10:49;;;;;;;30.87;10.13;;;;;;;2.20;35.41;100749.34;5090156;28;20433;-72
2022/01/25 10:13:20;;;;;;;10.73;9.63;;;;;;;2.57;34.86;100735.19;5089874;28;20495;-72
2022/01/25 10:15:48;;;;;;;37.00;11.63;;;;;;;2.68;35.85;100742.25;5089183;28;20429;-70
2022/01/25 10:18:16;;;;;;;15.57;9.83;;;;;;;2.22;35.29;100731.75;5089525;28;20445;-72
2022/01/25 10:20:44;;;;;;;16.90;9.20;;;;;;;2.30;35.32;100718.91;5089924;28;20811;-73
2022/01/25 10:23:14;;;;;;;14.03;11.17;;;;;;;2.58;35.09;100709.81;5090286;28;20494;-72
2022/01/25 10:25:43;;;;;;;15.83;10.43;;;;;;;2.40;35.67;100711.16;5085403;28;20916;-72
2022/01/25 10:28:12;;;;;;;22.03;9.50;;;;;;;2.69;35.08;100696.72;5089334;28;20476;-71
2022/01/25 10:30:42;;;;;;;11.77;9.77;;;;;;;3.06;34.05;100709.50;5081447;28;20449;-72
2022/01/25 10:33:24;;;;;;;12.13;10.30;;;;;;;3.39;33.72;100712.09;5088522;28;20932;-73
2022/01/25 10:35:50;;;;;;;14.80;7.53;;;;;;;3.44;31.67;100704.69;5090313;28;20425;-73
2022/01/25 10:38:28;;;;;;;10.03;7.00;;;;;;;3.50;30.27;100704.22;5089988;28;20445;-71
2022/01/25 10:40:58;;;;;;;118.30;14.43;;;;;;;3.11;31.21;100701.28;5090306;28;20498;-72
2022/01/25 10:43:25;;;;;;;10.67;8.47;;;;;;;3.38;31.07;100689.44;5096524;28;20453;-72
2022/01/25 10:46:10;;;;;;;15.03;7.67;;;;;;;3.54;30.82;100684.63;5096846;28;20494;-70
2022/01/25 10:48:37;;;;;;;13.50;8.50;;;;;;;3.42;31.33;100680.38;5093120;28;20472;-73
2022/01/25 10:51:07;;;;;;;10.30;8.20;;;;;;;3.21;31.43;100678.59;5088323;28;20463;-73
2022/01/25 10:53:35;;;;;;;14.47;8.73;;;;;;;3.05;31.31;100676.34;5089377;28;20428;-72
2022/01/25 10:56:04;;;;;;;12.93;7.63;;;;;;;2.99;30.75;100674.19;5089295;28;20444;-73
2022/01/25 10:58:31;;;;;;;10.40;8.20;;;;;;;3.00;32.03;100657.50;5085736;28;20448;-73
2022/01/25 11:00:59;;;;;;;11.13;7.93;;;;;;;3.20;31.12;100659.41;5092423;28;20436;-72
2022/01/25 11:03:28;;;;;;;10.27;8.67;;;;;;;3.58;31.25;100649.28;5090129;28;20441;-72
2022/01/25 11:05:56;;;;;;;10.70;8.83;;;;;;;3.69;31.71;100651.91;5093618;28;20504;-73
2022/01/25 11:08:24;;;;;;;12.00;10.80;;;;;;;3.28;32.52;100646.50;5091219;28;20222;-73
2022/01/25 11:10:57;;;;;;;11.43;10.17;;;;;;;3.13;32.55;100647.69;5092712;28;20498;-72
2022/01/25 11:13:36;;;;;;;11.70;9.37;;;;;;;3.05;32.73;100615.97;5089483;28;20940;-71
2022/01/25 11:16:05;;;;;;;11.63;8.20;;;;;;;3.31;31.85;100635.72;5092560;28;20525;-72
2022/01/25 11:18:33;;;;;;;15.77;9.00;;;;;;;2.69;31.49;100634.59;5091756;28;20440;-69
2022/01/25 11:21:02;;;;;;;9.03;8.13;;;;;;;2.46;31.46;100613.72;5096428;28;20437;-71
2022/01/25 11:23:32;;;;;;;85.63;13.20;;;;;;;2.35;31.65;100622.41;5094621;28;20486;-70
2022/01/25 11:26:02;;;;;;;11.10;8.03;;;;;;;2.28;32.64;100609.88;5094761;28;20452;-71
2022/01/25 11:28:30;;;;;;;11.80;8.03;;;;;;;2.54;31.83;100601.69;5094845;28;20472;-72
2022/01/25 11:31:00;;;;;;;15.43;7.80;;;;;;;2.69;31.81;100603.09;5095784;28;20449;-69
2022/01/25 11:33:28;;;;;;;9.40;8.40;;;;;;;2.66;32.12;100602.53;5095999;28;20494;-69
2022/01/25 11:35:55;;;;;;;20.67;7.80;;;;;;;2.68;32.27;100601.44;5096064;28;20967;-70
2022/01/25 11:38:33;;;;;;;8.73;7.13;;;;;;;2.87;31.52;100599.06;5094843;28;20569;-70
2022/01/25 11:41:01;;;;;;;9.73;8.73;;;;;;;2.96;32.03;100593.09;5090585;28;20436;-70
2022/01/25 11:43:27;;;;;;;11.73;9.30;;;;;;;2.71;32.44;100587.25;5087719;28;20451;-74
2022/01/25 11:46:03;;;;;;;10.33;8.97;;;;;;;2.51;33.19;100585.34;5089328;28;20441;-71
2022/01/25 11:48:38;;;;;;;12.00;8.83;;;;;;;2.41;33.19;100589.63;5089847;28;20551;-71
2022/01/25 11:51:13;;;;;;;12.80;9.93;;;;;;;2.79;32.89;100585.72;5092974;28;20432;-73
2022/01/25 11:53:42;;;;;;;18.17;10.50;;;;;;;3.01;32.79;100569.94;5090129;28;20450;-69
2022/01/25 11:56:12;;;;;;;26.30;7.73;;;;;;;2.89;31.30;100584.03;5089976;28;20433;-73
2022/01/25 11:58:40;;;;;;;9.60;8.27;;;;;;;2.89;30.64;100591.91;5088888;28;20448;-72
2022/01/25 12:01:17;;;;;;;10.83;7.13;;;;;;;2.75;31.32;100579.03;5090977;28;20514;-72
2022/01/25 12:03:47;;;;;;;9.03;8.10;;;;;;;2.74;31.32;100566.84;5089476;28;20198;-72
2022/01/25 12:06:20;;;;;;;9.27;8.27;;;;;;;2.94;31.72;100574.00;5087567;28;20449;-73
2022/01/25 12:08:54;;;;;;;10.97;8.53;;;;;;;2.97;31.52;100573.75;5089438;28;20461;-73
2022/01/25 12:11:34;;;;;;;9.53;8.50;;;;;;;2.99;31.50;100563.97;5090418;28;20473;-76
2022/01/25 12:14:26;;;;;;;9.10;8.20;;;;;;;2.99;31.62;100561.34;5090566;28;20880;-74
2022/01/25 12:17:09;;;;;;;8.97;7.63;;;;;;;2.84;30.91;100562.56;5088397;28;20449;-73
2022/01/25 12:19:39;;;;;;;10.87;7.10;;;;;;;3.18;31.61;100560.72;5086372;28;20448;-72
2022/01/25 12:22:15;;;;;;;8.47;7.67;;;;;;;3.27;31.39;100545.03;5090424;28;20806;-72
2022/01/25 12:25:04;;;;;;;10.20;7.17;;;;;;;3.19;29.86;100547.44;5088853;28;20433;-74
2022/01/25 12:27:48;;;;;;;9.40;8.40;;;;;;;3.35;30.09;100553.13;5089373;28;20443;-72
2022/01/25 12:30:20;;;;;;;10.60;8.93;;;;;;;3.19;29.73;100539.56;5088165;28;20441;-73
2022/01/25 12:32:55;;;;;;;14.17;9.10;;;;;;;3.03;29.62;100548.81;5089546;28;20429;-71
2022/01/25 12:35:40;;;;;;;11.00;8.47;;;;;;;3.11;29.86;100549.84;5089458;28;20558;-71
2022/01/25 12:38:13;;;;;;;13.30;7.87;;;;;;;3.00;29.99;100536.78;5090808;28;20798;-72
2022/01/25 12:40:42;;;;;;;10.87;6.93;;;;;;;2.74;30.62;100540.63;5088991;28;20437;-70